European Seaway — MPDG3 — position and weather

sailwx.info

Track history (hours):
 
Tides and Currents Weather Stations Pressure Air Temp Water Temp Dewpoint Dewpoint Depression Visibility Wind Speed Wind Dir Waves Ship Positions

European Seaway

Operator: P & O Ferries

Last reported at 2014-Aug-20 17:21 UTC. Time now 2014-Aug-22 19:45 UTC.
Position N 51°03' E 002°22'.

Length 175 m; draft 5.2 m.

Type: Ship. MMSI: 232001040.

Date/timePositionNaut miles runAvg speedWind from/ knotsBaromVisibWave heightAir tempDewpointWater temp
2014-Aug-20 17:21N 51°03' E 002°22'0 0.0
2014-Aug-20 16:27N 51°03' E 002°22'0 0.0
2014-Aug-20 15:22N 51°03' E 002°22'0 0.0
2014-Aug-20 14:30N 51°03' E 002°22'0 0.0
2014-Aug-20 13:28N 51°03' E 002°22'0 0.0
2014-Aug-20 12:23N 51°03' E 002°22'0 0.0
2014-Aug-20 11:33N 51°03' E 002°22'0 0.0
2014-Aug-20 10:33N 51°03' E 002°22'0 0.0
2014-Aug-20 09:32N 51°03' E 002°22'0 0.0
2014-Aug-20 08:32N 51°03' E 002°22'0 0.0
2014-Aug-20 07:33N 51°03' E 002°22'0 0.0
2014-Aug-20 06:33N 51°03' E 002°22'0 0.0
2014-Aug-20 05:33N 51°03' E 002°22'0 0.0
2014-Aug-20 04:33N 51°03' E 002°22'0 0.0
2014-Aug-20 03:33N 51°03' E 002°22'0 0.0
2014-Aug-20 02:34N 51°03' E 002°22'0 0.0
2014-Aug-20 01:33N 51°03' E 002°22'0 0.0
2014-Aug-20 00:33N 51°03' E 002°22'0 0.0
2014-Aug-19 23:25N 51°03' E 002°22'0 0.0
2014-Aug-19 22:32N 51°03' E 002°22'0 0.0
2014-Aug-19 21:19N 51°03' E 002°22'0 0.0
2014-Aug-19 20:33N 51°03' E 002°22'0 0.0
2014-Aug-19 19:33N 51°03' E 002°22'0 0.0
2014-Aug-19 18:32N 51°03' E 002°22'0 0.0
2014-Aug-19 17:33N 51°03' E 002°22'0 0.0
2014-Aug-19 16:33N 51°03' E 002°22'0 0.0
2014-Aug-19 15:29N 51°03' E 002°22'0 0.0
2014-Aug-19 14:24N 51°03' E 002°22'0 0.0
2014-Aug-19 13:28N 51°03' E 002°22'0 0.0
2014-Aug-19 12:33N 51°03' E 002°22'0 0.0
2014-Aug-19 11:30N 51°03' E 002°22'0 0.0
2014-Aug-19 10:16N 51°03' E 002°22'0 0.0
2014-Aug-19 09:33N 51°03' E 002°22'0 0.0
2014-Aug-19 08:29N 51°03' E 002°22'0 0.0
2014-Aug-19 07:30N 51°03' E 002°22'0 0.2
2014-Aug-19 06:33N 51°03' E 002°22'0 0.0
2014-Aug-19 05:30N 51°03' E 002°22'1 1.1
2014-Aug-19 04:33N 51°03' E 002°20'1 0.7
2014-Aug-19 03:33N 51°04' E 002°20'1615.9
2014-Aug-19 02:34N 51°02' E 001°55'5 4.9
2014-Aug-19 01:33N 51°03' E 001°47'4 4.1
2014-Aug-19 00:33N 51°06' E 001°43'4 4.1
2014-Aug-18 23:33N 51°08' E 001°38'4 4.4
2014-Aug-18 22:33N 51°13' E 001°37'4 4.2
2014-Aug-18 21:33N 51°17' E 001°37'4 3.9
2014-Aug-18 20:33N 51°21' E 001°36'7 7.5
2014-Aug-18 19:33N 51°26' E 001°28'1716.7
2014-Aug-18 18:33N 51°30' E 001°02'1615.6
2014-Aug-18 17:33N 51°30' E 000°37'10 9.7
2014-Aug-18 16:33N 51°27' E 000°22'1 1.1
2014-Aug-18 15:33N 51°27' E 000°21'0 0.3
2014-Aug-18 14:33N 51°27' E 000°21'0 0.0
2014-Aug-18 13:34N 51°27' E 000°21'0 0.0
2014-Aug-18 12:34N 51°27' E 000°21'0 0.0
2014-Aug-18 11:33N 51°27' E 000°21'0 0.0
2014-Aug-16 22:34N 51°27' E 000°21'0 0.0
2014-Aug-16 21:34N 51°27' E 000°21'0 0.0
2014-Aug-16 20:34N 51°27' E 000°21'0 0.0
2014-Aug-16 12:33N 51°27' E 000°21'0 0.0
2014-Aug-16 11:07N 51°27' E 000°21'0 0.0
2014-Aug-15 23:21N 51°27' E 000°21'0 0.0
2014-Aug-15 22:34N 51°27' E 000°21'0 0.0
2014-Aug-15 21:34N 51°27' E 000°21'0 0.0
2014-Aug-15 20:33N 51°27' E 000°21'0 0.0
2014-Aug-15 19:33N 51°27' E 000°21'0 0.0
2014-Aug-15 18:33N 51°27' E 000°21'0 0.0
2014-Aug-15 17:33N 51°27' E 000°21'0 0.0
2014-Aug-15 16:33N 51°27' E 000°21'0 0.0
2014-Aug-15 15:34N 51°27' E 000°21'0 0.0
2014-Aug-15 14:34N 51°27' E 000°21'0 0.0
2014-Aug-15 13:34N 51°27' E 000°21'0 0.0
2014-Aug-15 12:33N 51°27' E 000°21'0 0.0
2014-Aug-15 11:33N 51°27' E 000°21'0 0.0
2014-Aug-15 10:34N 51°27' E 000°21'0 0.0
2014-Aug-15 07:23N 51°27' E 000°21'0 0.0
2014-Aug-15 06:34N 51°27' E 000°21'0 0.0
2014-Aug-15 03:33N 51°27' E 000°21'0 0.0
2014-Aug-15 02:33N 51°27' E 000°21'0 0.0
2014-Aug-15 01:34N 51°27' E 000°21'0 0.0
2014-Aug-15 00:34N 51°27' E 000°21'0 0.0
2014-Aug-14 23:33N 51°27' E 000°21'0 0.0
2014-Aug-14 22:33N 51°27' E 000°21'0 0.0
2014-Aug-14 21:34N 51°27' E 000°21'0 0.0
2014-Aug-14 20:34N 51°27' E 000°21'0 0.0
2014-Aug-14 19:34N 51°27' E 000°21'0 0.0
2014-Aug-14 18:33N 51°27' E 000°21'0 0.0
2014-Aug-14 17:33N 51°27' E 000°21'0 0.0
2014-Aug-14 16:34N 51°27' E 000°21'0 0.0
2014-Aug-14 15:34N 51°27' E 000°21'0 0.0
2014-Aug-14 14:34N 51°27' E 000°21'0 0.0
2014-Aug-14 13:34N 51°27' E 000°21'0 0.0
2014-Aug-14 12:19N 51°27' E 000°21'0 0.0
2014-Aug-14 11:33N 51°27' E 000°21'0 0.0
2014-Aug-14 10:34N 51°27' E 000°21'0 0.0
2014-Aug-14 09:34N 51°27' E 000°21'0 0.0
2014-Aug-14 08:34N 51°27' E 000°21'0 0.0
2014-Aug-14 07:34N 51°27' E 000°21'0 0.0
2014-Aug-14 06:34N 51°27' E 000°21'0 0.0
2014-Aug-14 05:34N 51°27' E 000°21'0 0.0
2014-Aug-14 04:34N 51°27' E 000°21'0 0.0
2014-Aug-14 03:34N 51°27' E 000°21'0 0.0
2014-Aug-14 02:34N 51°27' E 000°21'0 0.0
2014-Aug-14 01:34N 51°27' E 000°21'0 0.0
2014-Aug-14 00:34N 51°27' E 000°21'0 0.0
2014-Aug-13 23:34N 51°27' E 000°21'0 0.0
2014-Aug-13 22:34N 51°27' E 000°21'0 0.0
2014-Aug-13 21:34N 51°27' E 000°21'0 0.0
2014-Aug-13 20:33N 51°27' E 000°21'0 0.0
2014-Aug-13 19:33N 51°27' E 000°21'0 0.0
2014-Aug-13 18:34N 51°27' E 000°21'0 0.0
2014-Aug-13 17:33N 51°27' E 000°21'0 0.0
2014-Aug-13 16:34N 51°27' E 000°21'0 0.0
2014-Aug-13 15:33N 51°27' E 000°21'0 0.0
2014-Aug-13 14:34N 51°27' E 000°21'0 0.0
2014-Aug-13 13:33N 51°27' E 000°21'0 0.0
2014-Aug-13 12:34N 51°27' E 000°21'0 0.0
2014-Aug-13 11:34N 51°27' E 000°21'0 0.0
2014-Aug-13 10:33N 51°27' E 000°21'0 0.0
2014-Aug-13 09:33N 51°27' E 000°21'0 0.0
2014-Aug-13 08:33N 51°27' E 000°21'0 0.0
2014-Aug-13 07:34N 51°27' E 000°21'0 0.0
2014-Aug-13 06:34N 51°27' E 000°21'0 0.0
2014-Aug-13 05:27N 51°27' E 000°21'0 0.0
2014-Aug-13 04:34N 51°27' E 000°21'0 0.0
2014-Aug-13 03:34N 51°27' E 000°21'0 0.0
2014-Aug-13 02:34N 51°27' E 000°21'0 0.0
2014-Aug-13 01:34N 51°27' E 000°21'0 0.0
2014-Aug-13 00:34N 51°27' E 000°21'0 0.0
2014-Aug-12 23:34N 51°27' E 000°21'0 0.0
2014-Aug-12 22:25N 51°27' E 000°21'0 0.0
2014-Aug-12 20:34N 51°27' E 000°21'0 0.0
2014-Aug-12 19:34N 51°27' E 000°21'0 0.0
2014-Aug-12 18:33N 51°27' E 000°21'0 0.0
2014-Aug-12 17:33N 51°27' E 000°21'0 0.0
2014-Aug-12 16:34N 51°27' E 000°21'0 0.0
2014-Aug-12 15:34N 51°27' E 000°21'0 0.0
2014-Aug-12 14:34N 51°27' E 000°21'0 0.0
2014-Aug-12 13:34N 51°27' E 000°21'0 0.0
2014-Aug-12 12:33N 51°27' E 000°21'0 0.0
2014-Aug-12 11:34N 51°27' E 000°21'0 0.0
2014-Aug-12 10:34N 51°27' E 000°21'0 0.0
2014-Aug-12 09:34N 51°27' E 000°21'0 0.0
2014-Aug-12 08:34N 51°27' E 000°21'0 0.0
2014-Aug-12 07:34N 51°27' E 000°21'0 0.0
2014-Aug-12 06:34N 51°27' E 000°21'0 0.0
2014-Aug-12 05:34N 51°27' E 000°21'0 0.0
2014-Aug-12 04:33N 51°27' E 000°21'0 0.0
2014-Aug-12 03:34N 51°27' E 000°21'0 0.0
2014-Aug-12 02:34N 51°27' E 000°21'0 0.0
2014-Aug-12 01:34N 51°27' E 000°21'0 0.0
2014-Aug-12 00:33N 51°27' E 000°21'0 0.0
2014-Aug-11 23:34N 51°27' E 000°21'0 0.0
2014-Aug-11 22:33N 51°27' E 000°21'0 0.0
2014-Aug-11 21:34N 51°27' E 000°21'0 0.0
2014-Aug-11 20:34N 51°27' E 000°21'0 0.0
2014-Aug-11 19:33N 51°27' E 000°21'0 0.0
2014-Aug-11 18:34N 51°27' E 000°21'0 0.0
2014-Aug-11 17:34N 51°27' E 000°21'0 0.0
2014-Aug-11 16:33N 51°27' E 000°21'0 0.0
2014-Aug-11 15:34N 51°27' E 000°21'0 0.0
2014-Aug-11 14:34N 51°27' E 000°21'0 0.0
2014-Aug-11 13:33N 51°27' E 000°21'0 0.0
2014-Aug-11 12:34N 51°27' E 000°21'0 0.0
2014-Aug-11 11:33N 51°27' E 000°21'0 0.0
2014-Aug-11 10:34N 51°27' E 000°21'0 0.0
2014-Aug-11 09:33N 51°27' E 000°21'0 0.0
2014-Aug-11 08:34N 51°27' E 000°21'0 0.0
2014-Aug-11 07:34N 51°27' E 000°21'0 0.0
2014-Aug-11 06:34N 51°27' E 000°21'0 0.0
2014-Aug-11 05:33N 51°27' E 000°21'0 0.0
2014-Aug-11 04:34N 51°27' E 000°21'0 0.0
2014-Aug-11 03:34N 51°27' E 000°21'0 0.0
2014-Aug-11 02:34N 51°27' E 000°21'0 0.0
2014-Aug-11 01:34N 51°27' E 000°21'0 0.0
2014-Aug-11 00:34N 51°27' E 000°21'0 0.0
2014-Aug-10 23:34N 51°27' E 000°21'0 0.0
2014-Aug-10 22:34N 51°27' E 000°21'0 0.0
2014-Aug-10 21:34N 51°27' E 000°21'0 0.0
2014-Aug-10 20:33N 51°27' E 000°21'0 0.0
2014-Aug-10 19:34N 51°27' E 000°21'0 0.0
2014-Aug-10 18:34N 51°27' E 000°21'0 0.0
2014-Aug-10 17:34N 51°27' E 000°21'  
Track history (hours):
 
Tides and Currents Weather Stations Pressure Air Temp Water Temp Dewpoint Dewpoint Depression Visibility Wind Speed Wind Dir Waves Ship Positions

European Seaway

Operator: P & O Ferries

Last reported at 2014-Aug-20 17:21 UTC. Time now 2014-Aug-22 19:45 UTC.
Position N 51°03' E 002°22'.

Length 175 m; draft 5.2 m.

Type: Ship. MMSI: 232001040.

Date/timePositionNaut miles runAvg speedWind from/ knotsBaromVisibWave heightAir tempDewpointWater temp
2014-Aug-20 17:21N 51°03' E 002°22'0 0.0
2014-Aug-20 16:27N 51°03' E 002°22'0 0.0
2014-Aug-20 15:22N 51°03' E 002°22'0 0.0
2014-Aug-20 14:30N 51°03' E 002°22'0 0.0
2014-Aug-20 13:28N 51°03' E 002°22'0 0.0
2014-Aug-20 12:23N 51°03' E 002°22'0 0.0
2014-Aug-20 11:33N 51°03' E 002°22'0 0.0
2014-Aug-20 10:33N 51°03' E 002°22'0 0.0
2014-Aug-20 09:32N 51°03' E 002°22'0 0.0
2014-Aug-20 08:32N 51°03' E 002°22'0 0.0
2014-Aug-20 07:33N 51°03' E 002°22'0 0.0
2014-Aug-20 06:33N 51°03' E 002°22'0 0.0
2014-Aug-20 05:33N 51°03' E 002°22'0 0.0
2014-Aug-20 04:33N 51°03' E 002°22'0 0.0
2014-Aug-20 03:33N 51°03' E 002°22'0 0.0
2014-Aug-20 02:34N 51°03' E 002°22'0 0.0
2014-Aug-20 01:33N 51°03' E 002°22'0 0.0
2014-Aug-20 00:33N 51°03' E 002°22'0 0.0
2014-Aug-19 23:25N 51°03' E 002°22'0 0.0
2014-Aug-19 22:32N 51°03' E 002°22'0 0.0
2014-Aug-19 21:19N 51°03' E 002°22'0 0.0
2014-Aug-19 20:33N 51°03' E 002°22'0 0.0
2014-Aug-19 19:33N 51°03' E 002°22'0 0.0
2014-Aug-19 18:32N 51°03' E 002°22'0 0.0
2014-Aug-19 17:33N 51°03' E 002°22'0 0.0
2014-Aug-19 16:33N 51°03' E 002°22'0 0.0
2014-Aug-19 15:29N 51°03' E 002°22'0 0.0
2014-Aug-19 14:24N 51°03' E 002°22'0 0.0
2014-Aug-19 13:28N 51°03' E 002°22'0 0.0
2014-Aug-19 12:33N 51°03' E 002°22'0 0.0
2014-Aug-19 11:30N 51°03' E 002°22'0 0.0
2014-Aug-19 10:16N 51°03' E 002°22'0 0.0
2014-Aug-19 09:33N 51°03' E 002°22'0 0.0
2014-Aug-19 08:29N 51°03' E 002°22'0 0.0
2014-Aug-19 07:30N 51°03' E 002°22'0 0.2
2014-Aug-19 06:33N 51°03' E 002°22'0 0.0
2014-Aug-19 05:30N 51°03' E 002°22'1 1.1
2014-Aug-19 04:33N 51°03' E 002°20'1 0.7
2014-Aug-19 03:33N 51°04' E 002°20'1615.9
2014-Aug-19 02:34N 51°02' E 001°55'5 4.9
2014-Aug-19 01:33N 51°03' E 001°47'4 4.1
2014-Aug-19 00:33N 51°06' E 001°43'4 4.1
2014-Aug-18 23:33N 51°08' E 001°38'4 4.4
2014-Aug-18 22:33N 51°13' E 001°37'4 4.2
2014-Aug-18 21:33N 51°17' E 001°37'4 3.9
2014-Aug-18 20:33N 51°21' E 001°36'7 7.5
2014-Aug-18 19:33N 51°26' E 001°28'1716.7
2014-Aug-18 18:33N 51°30' E 001°02'1615.6
2014-Aug-18 17:33N 51°30' E 000°37'10 9.7
2014-Aug-18 16:33N 51°27' E 000°22'1 1.1
2014-Aug-18 15:33N 51°27' E 000°21'0 0.3
2014-Aug-18 14:33N 51°27' E 000°21'0 0.0
2014-Aug-18 13:34N 51°27' E 000°21'0 0.0
2014-Aug-18 12:34N 51°27' E 000°21'0 0.0
2014-Aug-18 11:33N 51°27' E 000°21'0 0.0
2014-Aug-16 22:34N 51°27' E 000°21'0 0.0
2014-Aug-16 21:34N 51°27' E 000°21'0 0.0
2014-Aug-16 20:34N 51°27' E 000°21'0 0.0
2014-Aug-16 12:33N 51°27' E 000°21'0 0.0
2014-Aug-16 11:07N 51°27' E 000°21'0 0.0
2014-Aug-15 23:21N 51°27' E 000°21'0 0.0
2014-Aug-15 22:34N 51°27' E 000°21'0 0.0
2014-Aug-15 21:34N 51°27' E 000°21'0 0.0
2014-Aug-15 20:33N 51°27' E 000°21'0 0.0
2014-Aug-15 19:33N 51°27' E 000°21'0 0.0
2014-Aug-15 18:33N 51°27' E 000°21'0 0.0
2014-Aug-15 17:33N 51°27' E 000°21'0 0.0
2014-Aug-15 16:33N 51°27' E 000°21'0 0.0
2014-Aug-15 15:34N 51°27' E 000°21'0 0.0
2014-Aug-15 14:34N 51°27' E 000°21'0 0.0
2014-Aug-15 13:34N 51°27' E 000°21'0 0.0
2014-Aug-15 12:33N 51°27' E 000°21'0 0.0
2014-Aug-15 11:33N 51°27' E 000°21'0 0.0
2014-Aug-15 10:34N 51°27' E 000°21'0 0.0
2014-Aug-15 07:23N 51°27' E 000°21'0 0.0
2014-Aug-15 06:34N 51°27' E 000°21'0 0.0
2014-Aug-15 03:33N 51°27' E 000°21'0 0.0
2014-Aug-15 02:33N 51°27' E 000°21'0 0.0
2014-Aug-15 01:34N 51°27' E 000°21'0 0.0
2014-Aug-15 00:34N 51°27' E 000°21'0 0.0
2014-Aug-14 23:33N 51°27' E 000°21'0 0.0
2014-Aug-14 22:33N 51°27' E 000°21'0 0.0
2014-Aug-14 21:34N 51°27' E 000°21'0 0.0
2014-Aug-14 20:34N 51°27' E 000°21'0 0.0
2014-Aug-14 19:34N 51°27' E 000°21'0 0.0
2014-Aug-14 18:33N 51°27' E 000°21'0 0.0
2014-Aug-14 17:33N 51°27' E 000°21'0 0.0
2014-Aug-14 16:34N 51°27' E 000°21'0 0.0
2014-Aug-14 15:34N 51°27' E 000°21'0 0.0
2014-Aug-14 14:34N 51°27' E 000°21'0 0.0
2014-Aug-14 13:34N 51°27' E 000°21'0 0.0
2014-Aug-14 12:19N 51°27' E 000°21'0 0.0
2014-Aug-14 11:33N 51°27' E 000°21'0 0.0
2014-Aug-14 10:34N 51°27' E 000°21'0 0.0
2014-Aug-14 09:34N 51°27' E 000°21'0 0.0
2014-Aug-14 08:34N 51°27' E 000°21'0 0.0
2014-Aug-14 07:34N 51°27' E 000°21'0 0.0
2014-Aug-14 06:34N 51°27' E 000°21'0 0.0
2014-Aug-14 05:34N 51°27' E 000°21'0 0.0
2014-Aug-14 04:34N 51°27' E 000°21'0 0.0
2014-Aug-14 03:34N 51°27' E 000°21'0 0.0
2014-Aug-14 02:34N 51°27' E 000°21'0 0.0
2014-Aug-14 01:34N 51°27' E 000°21'0 0.0
2014-Aug-14 00:34N 51°27' E 000°21'0 0.0
2014-Aug-13 23:34N 51°27' E 000°21'0 0.0
2014-Aug-13 22:34N 51°27' E 000°21'0 0.0
2014-Aug-13 21:34N 51°27' E 000°21'0 0.0
2014-Aug-13 20:33N 51°27' E 000°21'0 0.0
2014-Aug-13 19:33N 51°27' E 000°21'0 0.0
2014-Aug-13 18:34N 51°27' E 000°21'0 0.0
2014-Aug-13 17:33N 51°27' E 000°21'0 0.0
2014-Aug-13 16:34N 51°27' E 000°21'0 0.0
2014-Aug-13 15:33N 51°27' E 000°21'0 0.0
2014-Aug-13 14:34N 51°27' E 000°21'0 0.0
2014-Aug-13 13:33N 51°27' E 000°21'0 0.0
2014-Aug-13 12:34N 51°27' E 000°21'0 0.0
2014-Aug-13 11:34N 51°27' E 000°21'0 0.0
2014-Aug-13 10:33N 51°27' E 000°21'0 0.0
2014-Aug-13 09:33N 51°27' E 000°21'0 0.0
2014-Aug-13 08:33N 51°27' E 000°21'0 0.0
2014-Aug-13 07:34N 51°27' E 000°21'0 0.0
2014-Aug-13 06:34N 51°27' E 000°21'0 0.0
2014-Aug-13 05:27N 51°27' E 000°21'0 0.0
2014-Aug-13 04:34N 51°27' E 000°21'0 0.0
2014-Aug-13 03:34N 51°27' E 000°21'0 0.0
2014-Aug-13 02:34N 51°27' E 000°21'0 0.0
2014-Aug-13 01:34N 51°27' E 000°21'0 0.0
2014-Aug-13 00:34N 51°27' E 000°21'0 0.0
2014-Aug-12 23:34N 51°27' E 000°21'0 0.0
2014-Aug-12 22:25N 51°27' E 000°21'0 0.0
2014-Aug-12 20:34N 51°27' E 000°21'0 0.0
2014-Aug-12 19:34N 51°27' E 000°21'0 0.0
2014-Aug-12 18:33N 51°27' E 000°21'0 0.0
2014-Aug-12 17:33N 51°27' E 000°21'0 0.0
2014-Aug-12 16:34N 51°27' E 000°21'0 0.0
2014-Aug-12 15:34N 51°27' E 000°21'0 0.0
2014-Aug-12 14:34N 51°27' E 000°21'0 0.0
2014-Aug-12 13:34N 51°27' E 000°21'0 0.0
2014-Aug-12 12:33N 51°27' E 000°21'0 0.0
2014-Aug-12 11:34N 51°27' E 000°21'0 0.0
2014-Aug-12 10:34N 51°27' E 000°21'0 0.0
2014-Aug-12 09:34N 51°27' E 000°21'0 0.0
2014-Aug-12 08:34N 51°27' E 000°21'0 0.0
2014-Aug-12 07:34N 51°27' E 000°21'0 0.0
2014-Aug-12 06:34N 51°27' E 000°21'0 0.0
2014-Aug-12 05:34N 51°27' E 000°21'0 0.0
2014-Aug-12 04:33N 51°27' E 000°21'0 0.0
2014-Aug-12 03:34N 51°27' E 000°21'0 0.0
2014-Aug-12 02:34N 51°27' E 000°21'0 0.0
2014-Aug-12 01:34N 51°27' E 000°21'0 0.0
2014-Aug-12 00:33N 51°27' E 000°21'0 0.0
2014-Aug-11 23:34N 51°27' E 000°21'0 0.0
2014-Aug-11 22:33N 51°27' E 000°21'0 0.0
2014-Aug-11 21:34N 51°27' E 000°21'0 0.0
2014-Aug-11 20:34N 51°27' E 000°21'0 0.0
2014-Aug-11 19:33N 51°27' E 000°21'0 0.0
2014-Aug-11 18:34N 51°27' E 000°21'0 0.0
2014-Aug-11 17:34N 51°27' E 000°21'0 0.0
2014-Aug-11 16:33N 51°27' E 000°21'0 0.0
2014-Aug-11 15:34N 51°27' E 000°21'0 0.0
2014-Aug-11 14:34N 51°27' E 000°21'0 0.0
2014-Aug-11 13:33N 51°27' E 000°21'0 0.0
2014-Aug-11 12:34N 51°27' E 000°21'0 0.0
2014-Aug-11 11:33N 51°27' E 000°21'0 0.0
2014-Aug-11 10:34N 51°27' E 000°21'0 0.0
2014-Aug-11 09:33N 51°27' E 000°21'0 0.0
2014-Aug-11 08:34N 51°27' E 000°21'0 0.0
2014-Aug-11 07:34N 51°27' E 000°21'0 0.0
2014-Aug-11 06:34N 51°27' E 000°21'0 0.0
2014-Aug-11 05:33N 51°27' E 000°21'0 0.0
2014-Aug-11 04:34N 51°27' E 000°21'0 0.0
2014-Aug-11 03:34N 51°27' E 000°21'0 0.0
2014-Aug-11 02:34N 51°27' E 000°21'0 0.0
2014-Aug-11 01:34N 51°27' E 000°21'0 0.0
2014-Aug-11 00:34N 51°27' E 000°21'0 0.0
2014-Aug-10 23:34N 51°27' E 000°21'0 0.0
2014-Aug-10 22:34N 51°27' E 000°21'0 0.0
2014-Aug-10 21:34N 51°27' E 000°21'0 0.0
2014-Aug-10 20:33N 51°27' E 000°21'0 0.0
2014-Aug-10 19:34N 51°27' E 000°21'0 0.0
2014-Aug-10 18:34N 51°27' E 000°21'0 0.0
2014-Aug-10 17:34N 51°27' E 000°21'  

Dump ship's entire track history